sensor_id;sensor_type;location;lat;lon;timestamp;P1;durP1;ratioP1;P2;durP2;ratioP2
1262;SDS011;62267;50.112;8.704;2023-09-12T00:01:09;18.67;;;15.60;;
1262;SDS011;62267;50.112;8.704;2023-09-12T00:03:36;22.87;;;15.70;;
1262;SDS011;62267;50.112;8.704;2023-09-12T00:06:05;18.73;;;14.37;;
1262;SDS011;62267;50.112;8.704;2023-09-12T00:08:32;23.00;;;15.10;;
1262;SDS011;62267;50.112;8.704;2023-09-12T00:11:08;16.90;;;14.37;;
1262;SDS011;62267;50.112;8.704;2023-09-12T00:13:40;19.80;;;14.67;;
1262;SDS011;62267;50.112;8.704;2023-09-12T00:16:08;19.30;;;15.60;;
1262;SDS011;62267;50.112;8.704;2023-09-12T00:18:37;19.10;;;15.23;;
1262;SDS011;62267;50.112;8.704;2023-09-12T00:21:06;21.37;;;15.67;;
1262;SDS011;62267;50.112;8.704;2023-09-12T00:23:33;21.63;;;15.57;;
1262;SDS011;62267;50.112;8.704;2023-09-12T00:26:01;20.50;;;15.10;;
1262;SDS011;62267;50.112;8.704;2023-09-12T00:28:28;19.70;;;15.30;;
1262;SDS011;62267;50.112;8.704;2023-09-12T00:30:56;25.83;;;16.07;;
1262;SDS011;62267;50.112;8.704;2023-09-12T00:33:23;22.20;;;16.30;;
1262;SDS011;62267;50.112;8.704;2023-09-12T00:35:51;22.53;;;16.50;;
1262;SDS011;62267;50.112;8.704;2023-09-12T00:38:19;19.23;;;14.80;;
1262;SDS011;62267;50.112;8.704;2023-09-12T00:40:46;19.37;;;15.33;;
1262;SDS011;62267;50.112;8.704;2023-09-12T00:43:14;20.80;;;14.17;;
1262;SDS011;62267;50.112;8.704;2023-09-12T00:45:42;18.07;;;14.73;;
1262;SDS011;62267;50.112;8.704;2023-09-12T00:48:10;18.70;;;15.10;;
1262;SDS011;62267;50.112;8.704;2023-09-12T00:50:38;21.07;;;14.97;;
1262;SDS011;62267;50.112;8.704;2023-09-12T00:53:06;21.57;;;14.63;;
1262;SDS011;62267;50.112;8.704;2023-09-12T00:55:34;20.77;;;14.93;;
1262;SDS011;62267;50.112;8.704;2023-09-12T00:58:02;16.63;;;13.90;;
1262;SDS011;62267;50.112;8.704;2023-09-12T01:00:30;18.77;;;13.80;;
1262;SDS011;62267;50.112;8.704;2023-09-12T01:02:58;17.40;;;14.23;;
1262;SDS011;62267;50.112;8.704;2023-09-12T01:05:26;24.63;;;15.90;;
1262;SDS011;62267;50.112;8.704;2023-09-12T01:07:54;21.10;;;15.17;;
1262;SDS011;62267;50.112;8.704;2023-09-12T01:10:22;18.70;;;15.77;;
1262;SDS011;62267;50.112;8.704;2023-09-12T01:12:50;18.50;;;14.80;;
1262;SDS011;62267;50.112;8.704;2023-09-12T01:15:20;17.30;;;15.40;;
1262;SDS011;62267;50.112;8.704;2023-09-12T01:17:48;22.60;;;15.63;;
1262;SDS011;62267;50.112;8.704;2023-09-12T01:20:25;20.10;;;14.57;;
1262;SDS011;62267;50.112;8.704;2023-09-12T01:28:07;17.37;;;15.60;;
1262;SDS011;62267;50.112;8.704;2023-09-12T01:30:36;16.53;;;14.87;;
1262;SDS011;62267;50.112;8.704;2023-09-12T01:33:06;15.37;;;13.77;;
1262;SDS011;62267;50.112;8.704;2023-09-12T01:35:33;15.70;;;13.83;;
1262;SDS011;62267;50.112;8.704;2023-09-12T01:38:01;17.30;;;15.40;;
1262;SDS011;62267;50.112;8.704;2023-09-12T01:40:38;20.07;;;14.63;;
1262;SDS011;62267;50.112;8.704;2023-09-12T01:43:06;21.13;;;14.60;;
1262;SDS011;62267;50.112;8.704;2023-09-12T01:45:34;16.43;;;14.87;;
1262;SDS011;62267;50.112;8.704;2023-09-12T01:48:03;18.60;;;14.60;;
1262;SDS011;62267;50.112;8.704;2023-09-12T01:50:31;17.80;;;13.70;;
1262;SDS011;62267;50.112;8.704;2023-09-12T01:53:00;20.03;;;14.87;;
1262;SDS011;62267;50.112;8.704;2023-09-12T01:55:28;15.53;;;12.93;;
1262;SDS011;62267;50.112;8.704;2023-09-12T01:57:56;15.03;;;13.30;;
1262;SDS011;62267;50.112;8.704;2023-09-12T02:00:24;14.90;;;13.30;;
1262;SDS011;62267;50.112;8.704;2023-09-12T02:02:53;18.27;;;14.57;;
1262;SDS011;62267;50.112;8.704;2023-09-12T02:05:21;18.70;;;13.97;;
1262;SDS011;62267;50.112;8.704;2023-09-12T02:07:49;19.87;;;15.30;;
1262;SDS011;62267;50.112;8.704;2023-09-12T02:10:17;24.60;;;17.00;;
1262;SDS011;62267;50.112;8.704;2023-09-12T02:12:45;21.87;;;19.00;;
1262;SDS011;62267;50.112;8.704;2023-09-12T02:15:12;28.27;;;18.80;;
1262;SDS011;62267;50.112;8.704;2023-09-12T02:17:40;25.00;;;19.43;;
1262;SDS011;62267;50.112;8.704;2023-09-12T02:20:08;32.40;;;21.73;;
1262;SDS011;62267;50.112;8.704;2023-09-12T02:22:36;35.17;;;28.50;;
1262;SDS011;62267;50.112;8.704;2023-09-12T02:25:05;36.30;;;30.63;;
1262;SDS011;62267;50.112;8.704;2023-09-12T02:27:35;34.97;;;27.17;;
1262;SDS011;62267;50.112;8.704;2023-09-12T02:30:03;37.83;;;26.57;;
1262;SDS011;62267;50.112;8.704;2023-09-12T02:32:31;29.17;;;24.73;;
1262;SDS011;62267;50.112;8.704;2023-09-12T02:34:59;24.20;;;21.70;;
1262;SDS011;62267;50.112;8.704;2023-09-12T02:37:27;23.30;;;20.47;;
1262;SDS011;62267;50.112;8.704;2023-09-12T02:39:54;25.07;;;20.37;;
1262;SDS011;62267;50.112;8.704;2023-09-12T02:42:22;26.83;;;19.07;;
1262;SDS011;62267;50.112;8.704;2023-09-12T02:44:50;21.37;;;17.70;;
1262;SDS011;62267;50.112;8.704;2023-09-12T02:47:19;22.40;;;18.90;;
1262;SDS011;62267;50.112;8.704;2023-09-12T02:49:46;28.43;;;20.30;;
1262;SDS011;62267;50.112;8.704;2023-09-12T02:52:14;19.53;;;17.37;;
1262;SDS011;62267;50.112;8.704;2023-09-12T02:54:41;22.43;;;17.53;;
1262;SDS011;62267;50.112;8.704;2023-09-12T02:57:09;23.50;;;15.53;;
1262;SDS011;62267;50.112;8.704;2023-09-12T02:59:36;21.60;;;16.43;;
1262;SDS011;62267;50.112;8.704;2023-09-12T03:02:04;20.50;;;16.50;;
1262;SDS011;62267;50.112;8.704;2023-09-12T03:04:34;16.10;;;14.40;;
1262;SDS011;62267;50.112;8.704;2023-09-12T03:07:02;19.30;;;14.90;;
1262;SDS011;62267;50.112;8.704;2023-09-12T03:09:30;19.70;;;14.50;;
1262;SDS011;62267;50.112;8.704;2023-09-12T03:12:00;17.20;;;15.03;;
1262;SDS011;62267;50.112;8.704;2023-09-12T03:14:31;16.93;;;13.93;;
1262;SDS011;62267;50.112;8.704;2023-09-12T03:17:00;21.37;;;14.20;;
1262;SDS011;62267;50.112;8.704;2023-09-12T03:19:29;21.13;;;15.00;;
1262;SDS011;62267;50.112;8.704;2023-09-12T03:21:57;18.70;;;14.90;;
1262;SDS011;62267;50.112;8.704;2023-09-12T03:24:25;17.03;;;13.53;;
1262;SDS011;62267;50.112;8.704;2023-09-12T03:26:55;18.80;;;14.17;;
1262;SDS011;62267;50.112;8.704;2023-09-12T03:29:24;20.37;;;14.10;;
1262;SDS011;62267;50.112;8.704;2023-09-12T03:31:52;16.17;;;13.87;;
1262;SDS011;62267;50.112;8.704;2023-09-12T03:34:19;15.23;;;13.70;;
1262;SDS011;62267;50.112;8.704;2023-09-12T03:36:47;17.63;;;13.17;;
1262;SDS011;62267;50.112;8.704;2023-09-12T03:39:14;18.53;;;14.33;;
1262;SDS011;62267;50.112;8.704;2023-09-12T03:41:41;19.53;;;15.47;;
1262;SDS011;62267;50.112;8.704;2023-09-12T03:44:09;20.30;;;14.53;;
1262;SDS011;62267;50.112;8.704;2023-09-12T03:46:37;17.27;;;13.20;;
1262;SDS011;62267;50.112;8.704;2023-09-12T03:49:07;17.97;;;13.67;;
1262;SDS011;62267;50.112;8.704;2023-09-12T03:51:34;19.67;;;13.67;;
1262;SDS011;62267;50.112;8.704;2023-09-12T03:54:05;17.90;;;14.50;;
1262;SDS011;62267;50.112;8.704;2023-09-12T03:56:33;16.40;;;14.43;;
1262;SDS011;62267;50.112;8.704;2023-09-12T03:59:01;14.33;;;12.83;;
1262;SDS011;62267;50.112;8.704;2023-09-12T04:01:28;15.63;;;13.93;;
1262;SDS011;62267;50.112;8.704;2023-09-12T04:03:57;18.73;;;14.10;;
1262;SDS011;62267;50.112;8.704;2023-09-12T04:06:29;19.17;;;12.70;;
1262;SDS011;62267;50.112;8.704;2023-09-12T04:08:57;15.70;;;13.80;;
1262;SDS011;62267;50.112;8.704;2023-09-12T04:11:27;19.97;;;13.70;;
1262;SDS011;62267;50.112;8.704;2023-09-12T04:14:11;16.93;;;13.33;;
1262;SDS011;62267;50.112;8.704;2023-09-12T04:16:38;24.10;;;14.73;;
1262;SDS011;62267;50.112;8.704;2023-09-12T04:19:06;19.27;;;14.20;;
1262;SDS011;62267;50.112;8.704;2023-09-12T04:21:33;19.80;;;14.27;;
1262;SDS011;62267;50.112;8.704;2023-09-12T04:24:01;17.83;;;15.20;;
1262;SDS011;62267;50.112;8.704;2023-09-12T04:26:28;20.50;;;13.80;;
1262;SDS011;62267;50.112;8.704;2023-09-12T04:28:56;16.73;;;13.90;;
1262;SDS011;62267;50.112;8.704;2023-09-12T04:31:24;16.33;;;14.20;;
1262;SDS011;62267;50.112;8.704;2023-09-12T04:33:52;18.07;;;13.67;;
1262;SDS011;62267;50.112;8.704;2023-09-12T04:36:19;14.77;;;11.93;;
1262;SDS011;62267;50.112;8.704;2023-09-12T04:38:47;15.30;;;13.50;;
1262;SDS011;62267;50.112;8.704;2023-09-12T04:41:16;18.10;;;13.43;;
1262;SDS011;62267;50.112;8.704;2023-09-12T04:43:44;15.97;;;14.20;;
1262;SDS011;62267;50.112;8.704;2023-09-12T04:46:12;18.50;;;13.93;;
1262;SDS011;62267;50.112;8.704;2023-09-12T04:48:39;20.30;;;15.30;;
1262;SDS011;62267;50.112;8.704;2023-09-12T04:51:07;16.60;;;14.07;;
1262;SDS011;62267;50.112;8.704;2023-09-12T04:53:36;17.97;;;14.63;;
1262;SDS011;62267;50.112;8.704;2023-09-12T04:56:04;18.27;;;14.00;;
1262;SDS011;62267;50.112;8.704;2023-09-12T04:58:33;16.53;;;14.20;;
1262;SDS011;62267;50.112;8.704;2023-09-12T05:01:01;18.60;;;13.40;;
1262;SDS011;62267;50.112;8.704;2023-09-12T05:03:29;16.57;;;13.80;;
1262;SDS011;62267;50.112;8.704;2023-09-12T05:05:58;23.30;;;14.37;;
1262;SDS011;62267;50.112;8.704;2023-09-12T05:08:25;16.63;;;14.37;;
1262;SDS011;62267;50.112;8.704;2023-09-12T05:10:52;21.90;;;14.27;;
1262;SDS011;62267;50.112;8.704;2023-09-12T05:13:20;24.67;;;14.77;;
1262;SDS011;62267;50.112;8.704;2023-09-12T05:15:47;20.40;;;15.10;;
1262;SDS011;62267;50.112;8.704;2023-09-12T05:18:20;30.03;;;15.00;;
1262;SDS011;62267;50.112;8.704;2023-09-12T05:20:47;22.57;;;14.20;;
1262;SDS011;62267;50.112;8.704;2023-09-12T05:23:18;20.43;;;14.57;;
1262;SDS011;62267;50.112;8.704;2023-09-12T05:25:45;23.80;;;16.50;;
1262;SDS011;62267;50.112;8.704;2023-09-12T05:28:15;18.63;;;14.17;;
1262;SDS011;62267;50.112;8.704;2023-09-12T05:30:46;23.40;;;14.00;;
1262;SDS011;62267;50.112;8.704;2023-09-12T05:33:14;20.83;;;16.70;;
1262;SDS011;62267;50.112;8.704;2023-09-12T05:35:42;21.33;;;14.37;;
1262;SDS011;62267;50.112;8.704;2023-09-12T05:38:10;15.23;;;13.83;;
1262;SDS011;62267;50.112;8.704;2023-09-12T05:40:39;17.60;;;13.93;;
1262;SDS011;62267;50.112;8.704;2023-09-12T05:43:07;16.77;;;13.80;;
1262;SDS011;62267;50.112;8.704;2023-09-12T05:45:34;20.97;;;14.60;;
1262;SDS011;62267;50.112;8.704;2023-09-12T05:48:03;26.73;;;15.43;;
1262;SDS011;62267;50.112;8.704;2023-09-12T05:50:34;17.50;;;14.97;;
1262;SDS011;62267;50.112;8.704;2023-09-12T05:53:02;22.83;;;13.67;;
1262;SDS011;62267;50.112;8.704;2023-09-12T05:55:30;25.17;;;15.97;;
1262;SDS011;62267;50.112;8.704;2023-09-12T05:58:00;24.97;;;14.57;;
1262;SDS011;62267;50.112;8.704;2023-09-12T06:00:27;24.90;;;16.17;;
1262;SDS011;62267;50.112;8.704;2023-09-12T06:02:55;18.90;;;14.97;;
1262;SDS011;62267;50.112;8.704;2023-09-12T06:05:22;22.77;;;16.53;;
1262;SDS011;62267;50.112;8.704;2023-09-12T06:07:50;22.07;;;17.33;;
1262;SDS011;62267;50.112;8.704;2023-09-12T06:10:17;17.90;;;14.67;;
1262;SDS011;62267;50.112;8.704;2023-09-12T06:12:46;20.27;;;16.37;;
1262;SDS011;62267;50.112;8.704;2023-09-12T06:15:14;21.67;;;15.50;;
1262;SDS011;62267;50.112;8.704;2023-09-12T06:17:41;27.80;;;15.40;;
1262;SDS011;62267;50.112;8.704;2023-09-12T06:20:09;17.63;;;14.83;;
1262;SDS011;62267;50.112;8.704;2023-09-12T06:22:36;20.80;;;15.53;;
1262;SDS011;62267;50.112;8.704;2023-09-12T06:25:05;22.37;;;15.30;;
1262;SDS011;62267;50.112;8.704;2023-09-12T06:27:33;22.40;;;14.93;;
1262;SDS011;62267;50.112;8.704;2023-09-12T06:30:02;19.77;;;15.80;;
1262;SDS011;62267;50.112;8.704;2023-09-12T06:32:31;16.83;;;15.03;;
1262;SDS011;62267;50.112;8.704;2023-09-12T06:34:58;23.33;;;15.57;;
1262;SDS011;62267;50.112;8.704;2023-09-12T06:37:25;20.00;;;16.40;;
1262;SDS011;62267;50.112;8.704;2023-09-12T06:39:56;16.90;;;14.70;;
1262;SDS011;62267;50.112;8.704;2023-09-12T06:42:23;19.93;;;16.23;;
1262;SDS011;62267;50.112;8.704;2023-09-12T06:44:50;20.63;;;15.30;;
1262;SDS011;62267;50.112;8.704;2023-09-12T06:47:18;18.30;;;14.63;;
1262;SDS011;62267;50.112;8.704;2023-09-12T06:49:45;17.67;;;13.70;;
1262;SDS011;62267;50.112;8.704;2023-09-12T06:52:20;40.37;;;16.13;;
1262;SDS011;62267;50.112;8.704;2023-09-12T06:54:48;21.43;;;14.07;;
1262;SDS011;62267;50.112;8.704;2023-09-12T06:57:15;31.57;;;15.07;;
1262;SDS011;62267;50.112;8.704;2023-09-12T06:59:43;23.40;;;13.47;;
1262;SDS011;62267;50.112;8.704;2023-09-12T07:02:13;17.20;;;12.87;;
1262;SDS011;62267;50.112;8.704;2023-09-12T07:04:45;17.67;;;13.70;;
1262;SDS011;62267;50.112;8.704;2023-09-12T07:07:15;20.73;;;14.00;;
1262;SDS011;62267;50.112;8.704;2023-09-12T07:09:45;26.33;;;14.07;;
1262;SDS011;62267;50.112;8.704;2023-09-12T07:12:13;22.50;;;13.27;;
1262;SDS011;62267;50.112;8.704;2023-09-12T07:14:40;18.50;;;14.00;;
1262;SDS011;62267;50.112;8.704;2023-09-12T07:17:08;21.00;;;12.93;;
1262;SDS011;62267;50.112;8.704;2023-09-12T07:19:36;17.90;;;12.73;;
1262;SDS011;62267;50.112;8.704;2023-09-12T07:22:03;22.20;;;13.90;;
1262;SDS011;62267;50.112;8.704;2023-09-12T07:24:32;23.77;;;14.20;;
1262;SDS011;62267;50.112;8.704;2023-09-12T07:26:59;19.23;;;12.87;;
1262;SDS011;62267;50.112;8.704;2023-09-12T07:29:28;18.60;;;13.80;;
1262;SDS011;62267;50.112;8.704;2023-09-12T07:31:56;12.80;;;11.43;;
1262;SDS011;62267;50.112;8.704;2023-09-12T07:34:27;16.93;;;12.93;;
1262;SDS011;62267;50.112;8.704;2023-09-12T07:36:54;14.00;;;12.70;;
1262;SDS011;62267;50.112;8.704;2023-09-12T07:39:24;17.33;;;13.53;;
1262;SDS011;62267;50.112;8.704;2023-09-12T07:41:51;21.47;;;12.77;;
1262;SDS011;62267;50.112;8.704;2023-09-12T07:44:19;20.67;;;13.20;;
1262;SDS011;62267;50.112;8.704;2023-09-12T07:46:47;15.83;;;11.37;;
1262;SDS011;62267;50.112;8.704;2023-09-12T07:49:15;17.07;;;12.73;;
1262;SDS011;62267;50.112;8.704;2023-09-12T07:51:43;22.27;;;13.50;;
1262;SDS011;62267;50.112;8.704;2023-09-12T07:54:12;12.87;;;11.67;;
1262;SDS011;62267;50.112;8.704;2023-09-12T07:56:40;16.10;;;13.17;;
1262;SDS011;62267;50.112;8.704;2023-09-12T07:59:07;14.73;;;12.03;;
1262;SDS011;62267;50.112;8.704;2023-09-12T08:01:37;15.40;;;11.67;;
1262;SDS011;62267;50.112;8.704;2023-09-12T08:04:05;14.80;;;11.00;;
1262;SDS011;62267;50.112;8.704;2023-09-12T08:06:32;19.30;;;12.93;;
1262;SDS011;62267;50.112;8.704;2023-09-12T08:09:21;18.17;;;12.10;;
1262;SDS011;62267;50.112;8.704;2023-09-12T08:11:48;14.27;;;12.77;;
1262;SDS011;62267;50.112;8.704;2023-09-12T08:14:17;14.77;;;12.43;;
1262;SDS011;62267;50.112;8.704;2023-09-12T08:16:46;26.87;;;13.70;;
1262;SDS011;62267;50.112;8.704;2023-09-12T08:19:14;14.67;;;12.30;;
1262;SDS011;62267;50.112;8.704;2023-09-12T08:21:45;21.53;;;13.97;;
1262;SDS011;62267;50.112;8.704;2023-09-12T08:24:13;18.63;;;13.67;;
1262;SDS011;62267;50.112;8.704;2023-09-12T08:26:41;16.47;;;12.30;;
1262;SDS011;62267;50.112;8.704;2023-09-12T08:29:08;22.07;;;12.43;;
1262;SDS011;62267;50.112;8.704;2023-09-12T08:31:36;16.60;;;13.70;;
1262;SDS011;62267;50.112;8.704;2023-09-12T08:34:06;21.13;;;13.10;;
1262;SDS011;62267;50.112;8.704;2023-09-12T08:36:33;21.07;;;13.73;;
1262;SDS011;62267;50.112;8.704;2023-09-12T08:39:02;16.67;;;12.67;;
1262;SDS011;62267;50.112;8.704;2023-09-12T08:41:31;19.10;;;13.20;;
1262;SDS011;62267;50.112;8.704;2023-09-12T08:43:59;18.07;;;12.50;;
1262;SDS011;62267;50.112;8.704;2023-09-12T08:46:27;21.57;;;14.67;;
1262;SDS011;62267;50.112;8.704;2023-09-12T08:48:57;20.50;;;12.97;;
1262;SDS011;62267;50.112;8.704;2023-09-12T08:51:26;19.47;;;12.57;;
1262;SDS011;62267;50.112;8.704;2023-09-12T08:53:54;23.00;;;13.57;;
1262;SDS011;62267;50.112;8.704;2023-09-12T08:56:22;14.97;;;13.33;;
1262;SDS011;62267;50.112;8.704;2023-09-12T08:58:51;18.10;;;12.47;;
1262;SDS011;62267;50.112;8.704;2023-09-12T09:01:23;15.47;;;13.80;;
1262;SDS011;62267;50.112;8.704;2023-09-12T09:03:54;17.40;;;14.27;;
1262;SDS011;62267;50.112;8.704;2023-09-12T09:06:22;20.00;;;13.20;;
1262;SDS011;62267;50.112;8.704;2023-09-12T09:08:49;16.00;;;12.00;;
1262;SDS011;62267;50.112;8.704;2023-09-12T09:11:17;19.20;;;13.20;;
1262;SDS011;62267;50.112;8.704;2023-09-12T09:13:45;18.73;;;11.93;;
1262;SDS011;62267;50.112;8.704;2023-09-12T09:16:17;15.73;;;13.90;;
1262;SDS011;62267;50.112;8.704;2023-09-12T09:18:53;18.43;;;13.40;;
1262;SDS011;62267;50.112;8.704;2023-09-12T09:21:27;23.20;;;12.50;;
1262;SDS011;62267;50.112;8.704;2023-09-12T09:23:59;15.47;;;13.87;;
1262;SDS011;62267;50.112;8.704;2023-09-12T09:29:17;16.53;;;13.17;;
1262;SDS011;62267;50.112;8.704;2023-09-12T09:31:49;14.53;;;12.10;;
1262;SDS011;62267;50.112;8.704;2023-09-12T09:34:19;18.07;;;12.20;;
1262;SDS011;62267;50.112;8.704;2023-09-12T09:36:48;26.77;;;17.13;;
1262;SDS011;62267;50.112;8.704;2023-09-12T09:39:17;18.30;;;14.70;;
1262;SDS011;62267;50.112;8.704;2023-09-12T09:41:47;16.90;;;13.70;;
1262;SDS011;62267;50.112;8.704;2023-09-12T09:44:15;15.37;;;12.20;;
1262;SDS011;62267;50.112;8.704;2023-09-12T09:46:43;17.90;;;12.90;;
1262;SDS011;62267;50.112;8.704;2023-09-12T09:49:11;15.63;;;14.00;;
1262;SDS011;62267;50.112;8.704;2023-09-12T09:51:41;14.63;;;12.27;;
1262;SDS011;62267;50.112;8.704;2023-09-12T09:54:12;16.40;;;12.27;;
1262;SDS011;62267;50.112;8.704;2023-09-12T09:56:49;18.40;;;12.43;;
1262;SDS011;62267;50.112;8.704;2023-09-12T09:59:18;14.10;;;11.93;;
1262;SDS011;62267;50.112;8.704;2023-09-12T10:01:46;14.30;;;12.80;;
1262;SDS011;62267;50.112;8.704;2023-09-12T10:04:15;19.10;;;14.10;;
1262;SDS011;62267;50.112;8.704;2023-09-12T10:06:43;14.90;;;13.47;;
1262;SDS011;62267;50.112;8.704;2023-09-12T10:09:12;17.83;;;12.43;;
1262;SDS011;62267;50.112;8.704;2023-09-12T10:11:40;13.20;;;11.80;;
1262;SDS011;62267;50.112;8.704;2023-09-12T10:14:09;16.77;;;15.07;;
1262;SDS011;62267;50.112;8.704;2023-09-12T10:16:44;14.97;;;12.50;;
1262;SDS011;62267;50.112;8.704;2023-09-12T10:19:18;23.37;;;13.77;;
1262;SDS011;62267;50.112;8.704;2023-09-12T10:24:34;16.40;;;13.30;;
1262;SDS011;62267;50.112;8.704;2023-09-12T10:27:02;17.47;;;14.77;;
1262;SDS011;62267;50.112;8.704;2023-09-12T10:29:30;13.97;;;12.50;;
1262;SDS011;62267;50.112;8.704;2023-09-12T10:31:58;16.40;;;12.47;;
1262;SDS011;62267;50.112;8.704;2023-09-12T10:34:25;15.10;;;12.50;;
1262;SDS011;62267;50.112;8.704;2023-09-12T10:36:53;13.93;;;11.27;;
1262;SDS011;62267;50.112;8.704;2023-09-12T10:39:22;20.00;;;11.73;;
1262;SDS011;62267;50.112;8.704;2023-09-12T10:41:51;12.83;;;11.60;;
1262;SDS011;62267;50.112;8.704;2023-09-12T10:44:19;12.40;;;11.20;;
1262;SDS011;62267;50.112;8.704;2023-09-12T10:46:48;17.73;;;12.37;;
1262;SDS011;62267;50.112;8.704;2023-09-12T10:49:15;16.40;;;13.43;;
1262;SDS011;62267;50.112;8.704;2023-09-12T10:51:45;14.00;;;11.70;;
1262;SDS011;62267;50.112;8.704;2023-09-12T10:54:16;16.47;;;11.70;;
1262;SDS011;62267;50.112;8.704;2023-09-12T10:56:43;18.40;;;11.37;;
1262;SDS011;62267;50.112;8.704;2023-09-12T10:59:17;14.20;;;12.17;;
1262;SDS011;62267;50.112;8.704;2023-09-12T11:01:47;15.57;;;11.13;;
1262;SDS011;62267;50.112;8.704;2023-09-12T11:06:46;14.87;;;11.73;;
1262;SDS011;62267;50.112;8.704;2023-09-12T11:09:17;16.50;;;12.30;;
1262;SDS011;62267;50.112;8.704;2023-09-12T11:11:46;13.40;;;11.07;;
1262;SDS011;62267;50.112;8.704;2023-09-12T11:14:16;19.17;;;11.90;;
1262;SDS011;62267;50.112;8.704;2023-09-12T11:19:31;11.67;;;10.23;;
1262;SDS011;62267;50.112;8.704;2023-09-12T11:22:26;19.87;;;11.20;;
1262;SDS011;62267;50.112;8.704;2023-09-12T11:24:54;13.93;;;10.43;;
1262;SDS011;62267;50.112;8.704;2023-09-12T11:27:31;16.50;;;12.93;;
1262;SDS011;62267;50.112;8.704;2023-09-12T11:30:03;17.13;;;12.63;;
1262;SDS011;62267;50.112;8.704;2023-09-12T11:32:32;16.63;;;11.70;;
1262;SDS011;62267;50.112;8.704;2023-09-12T11:35:06;12.77;;;11.47;;
1262;SDS011;62267;50.112;8.704;2023-09-12T11:37:35;13.77;;;11.00;;
1262;SDS011;62267;50.112;8.704;2023-09-12T11:42:52;15.10;;;13.07;;
1262;SDS011;62267;50.112;8.704;2023-09-12T11:45:22;12.83;;;11.33;;
1262;SDS011;62267;50.112;8.704;2023-09-12T11:47:51;20.80;;;11.80;;
1262;SDS011;62267;50.112;8.704;2023-09-12T11:50:25;13.50;;;11.33;;
1262;SDS011;62267;50.112;8.704;2023-09-12T11:53:02;13.40;;;12.00;;
1262;SDS011;62267;50.112;8.704;2023-09-12T11:55:32;12.37;;;11.07;;
1262;SDS011;62267;50.112;8.704;2023-09-12T11:57:59;14.80;;;12.07;;
1262;SDS011;62267;50.112;8.704;2023-09-12T12:00:26;11.37;;;10.20;;
1262;SDS011;62267;50.112;8.704;2023-09-12T12:02:54;25.93;;;22.40;;
1262;SDS011;62267;50.112;8.704;2023-09-12T12:05:22;12.87;;;11.40;;
1262;SDS011;62267;50.112;8.704;2023-09-12T12:07:49;18.10;;;12.63;;
1262;SDS011;62267;50.112;8.704;2023-09-12T12:10:18;16.17;;;12.40;;
1262;SDS011;62267;50.112;8.704;2023-09-12T12:12:46;14.10;;;12.33;;
1262;SDS011;62267;50.112;8.704;2023-09-12T12:15:16;12.97;;;11.00;;
1262;SDS011;62267;50.112;8.704;2023-09-12T12:17:44;12.90;;;11.57;;
1262;SDS011;62267;50.112;8.704;2023-09-12T12:20:12;12.83;;;10.50;;
1262;SDS011;62267;50.112;8.704;2023-09-12T12:22:41;13.23;;;10.97;;
1262;SDS011;62267;50.112;8.704;2023-09-12T12:25:12;12.80;;;10.67;;
1262;SDS011;62267;50.112;8.704;2023-09-12T12:27:40;14.17;;;11.47;;
1262;SDS011;62267;50.112;8.704;2023-09-12T12:30:08;15.03;;;11.33;;
1262;SDS011;62267;50.112;8.704;2023-09-12T12:32:36;13.30;;;11.70;;
1262;SDS011;62267;50.112;8.704;2023-09-12T12:35:16;13.23;;;10.73;;
1262;SDS011;62267;50.112;8.704;2023-09-12T12:38:03;17.87;;;11.80;;
1262;SDS011;62267;50.112;8.704;2023-09-12T12:40:37;15.83;;;12.57;;
1262;SDS011;62267;50.112;8.704;2023-09-12T12:43:17;13.50;;;12.23;;
1262;SDS011;62267;50.112;8.704;2023-09-12T12:45:52;13.33;;;11.93;;
1262;SDS011;62267;50.112;8.704;2023-09-12T12:48:31;13.73;;;12.50;;
1262;SDS011;62267;50.112;8.704;2023-09-12T12:50:59;15.20;;;13.60;;
1262;SDS011;62267;50.112;8.704;2023-09-12T12:53:36;15.43;;;12.20;;
1262;SDS011;62267;50.112;8.704;2023-09-12T12:56:19;17.70;;;12.53;;
1262;SDS011;62267;50.112;8.704;2023-09-12T12:58:48;15.90;;;12.23;;
1262;SDS011;62267;50.112;8.704;2023-09-12T13:01:17;15.17;;;11.33;;
1262;SDS011;62267;50.112;8.704;2023-09-12T13:03:46;13.73;;;11.70;;
1262;SDS011;62267;50.112;8.704;2023-09-12T13:06:19;20.13;;;13.70;;
1262;SDS011;62267;50.112;8.704;2023-09-12T13:08:47;16.43;;;12.50;;
1262;SDS011;62267;50.112;8.704;2023-09-12T13:11:15;13.73;;;12.33;;
1262;SDS011;62267;50.112;8.704;2023-09-12T13:13:45;14.83;;;12.87;;
1262;SDS011;62267;50.112;8.704;2023-09-12T13:16:15;17.17;;;13.30;;
1262;SDS011;62267;50.112;8.704;2023-09-12T13:18:44;18.03;;;14.47;;
1262;SDS011;62267;50.112;8.704;2023-09-12T13:21:12;14.93;;;13.43;;
1262;SDS011;62267;50.112;8.704;2023-09-12T13:23:39;14.27;;;12.97;;
1262;SDS011;62267;50.112;8.704;2023-09-12T13:26:08;19.60;;;14.70;;
1262;SDS011;62267;50.112;8.704;2023-09-12T13:28:36;26.43;;;15.47;;
1262;SDS011;62267;50.112;8.704;2023-09-12T13:31:04;16.23;;;13.30;;
1262;SDS011;62267;50.112;8.704;2023-09-12T13:33:32;15.30;;;13.73;;
1262;SDS011;62267;50.112;8.704;2023-09-12T13:36:00;14.87;;;13.37;;
1262;SDS011;62267;50.112;8.704;2023-09-12T13:38:28;16.23;;;13.43;;
1262;SDS011;62267;50.112;8.704;2023-09-12T13:40:55;16.07;;;14.37;;
1262;SDS011;62267;50.112;8.704;2023-09-12T13:43:23;16.57;;;13.63;;
1262;SDS011;62267;50.112;8.704;2023-09-12T13:45:50;15.90;;;13.23;;
1262;SDS011;62267;50.112;8.704;2023-09-12T13:48:18;15.80;;;13.17;;
1262;SDS011;62267;50.112;8.704;2023-09-12T13:50:49;16.77;;;14.80;;
1262;SDS011;62267;50.112;8.704;2023-09-12T13:53:16;14.53;;;12.77;;
1262;SDS011;62267;50.112;8.704;2023-09-12T13:55:43;17.73;;;12.77;;
1262;SDS011;62267;50.112;8.704;2023-09-12T13:58:12;14.50;;;13.00;;
1262;SDS011;62267;50.112;8.704;2023-09-12T14:00:39;15.67;;;14.10;;
1262;SDS011;62267;50.112;8.704;2023-09-12T14:03:07;16.23;;;13.07;;
1262;SDS011;62267;50.112;8.704;2023-09-12T14:05:36;18.63;;;13.90;;
1262;SDS011;62267;50.112;8.704;2023-09-12T14:08:07;21.13;;;14.50;;
1262;SDS011;62267;50.112;8.704;2023-09-12T14:10:35;14.47;;;12.93;;
1262;SDS011;62267;50.112;8.704;2023-09-12T14:13:05;22.23;;;15.20;;
1262;SDS011;62267;50.112;8.704;2023-09-12T14:15:48;14.37;;;12.87;;
1262;SDS011;62267;50.112;8.704;2023-09-12T14:18:19;14.50;;;13.00;;
1262;SDS011;62267;50.112;8.704;2023-09-12T14:20:49;14.40;;;12.20;;
1262;SDS011;62267;50.112;8.704;2023-09-12T14:23:19;13.20;;;12.10;;
1262;SDS011;62267;50.112;8.704;2023-09-12T14:25:51;14.00;;;12.67;;
1262;SDS011;62267;50.112;8.704;2023-09-12T14:28:19;13.67;;;12.20;;
1262;SDS011;62267;50.112;8.704;2023-09-12T14:30:47;13.87;;;12.67;;
1262;SDS011;62267;50.112;8.704;2023-09-12T14:33:16;17.73;;;13.60;;
1262;SDS011;62267;50.112;8.704;2023-09-12T14:35:44;15.10;;;13.00;;
1262;SDS011;62267;50.112;8.704;2023-09-12T14:38:12;14.37;;;12.90;;
1262;SDS011;62267;50.112;8.704;2023-09-12T14:40:40;16.37;;;13.80;;
1262;SDS011;62267;50.112;8.704;2023-09-12T14:43:11;15.70;;;14.10;;
1262;SDS011;62267;50.112;8.704;2023-09-12T14:45:40;13.57;;;12.13;;
1262;SDS011;62267;50.112;8.704;2023-09-12T14:48:07;20.33;;;11.90;;
1262;SDS011;62267;50.112;8.704;2023-09-12T14:50:36;14.00;;;12.53;;
1262;SDS011;62267;50.112;8.704;2023-09-12T14:53:09;13.73;;;12.43;;
1262;SDS011;62267;50.112;8.704;2023-09-12T14:55:38;14.67;;;12.30;;
1262;SDS011;62267;50.112;8.704;2023-09-12T14:58:06;14.27;;;12.80;;
1262;SDS011;62267;50.112;8.704;2023-09-12T15:00:33;16.40;;;13.40;;
1262;SDS011;62267;50.112;8.704;2023-09-12T15:03:01;15.23;;;13.20;;